createdAt,value
2023-12-30T00:00:40.478Z,1.98
2023-12-30T00:03:08.554Z,1.15
2023-12-30T00:05:36.666Z,1.45
2023-12-30T00:08:04.869Z,1.48
2023-12-30T00:10:32.859Z,1.88
2023-12-30T00:13:03.814Z,1.92
2023-12-30T00:15:32.175Z,1.98
2023-12-30T00:18:00.170Z,1.45
2023-12-30T00:20:28.111Z,2.03
2023-12-30T00:22:56.085Z,0.90
2023-12-30T00:25:24.056Z,1.77
2023-12-30T00:27:53.123Z,0.80
2023-12-30T00:30:21.233Z,0.63
2023-12-30T00:32:49.314Z,0.85
2023-12-30T00:35:17.449Z,1.00
2023-12-30T00:37:45.366Z,1.27
2023-12-30T00:40:14.991Z,1.00
2023-12-30T00:42:45.193Z,1.35
2023-12-30T00:45:13.128Z,1.35
2023-12-30T00:47:42.117Z,1.42
2023-12-30T00:50:10.260Z,0.90
2023-12-30T00:52:38.247Z,0.95
2023-12-30T00:55:06.653Z,1.75
2023-12-30T00:57:34.672Z,1.05
2023-12-30T01:00:02.692Z,0.68
2023-12-30T01:02:30.613Z,1.02
2023-12-30T01:04:59.410Z,1.10
2023-12-30T01:07:27.626Z,1.60
2023-12-30T01:09:55.698Z,1.42
2023-12-30T01:12:24.000Z,1.48
2023-12-30T01:14:51.971Z,1.17
2023-12-30T01:17:19.980Z,1.80
2023-12-30T01:19:48.051Z,1.23
2023-12-30T01:22:16.149Z,2.53
2023-12-30T01:24:44.106Z,1.40
2023-12-30T01:27:13.256Z,0.80
2023-12-30T01:29:41.267Z,0.85
2023-12-30T01:32:09.186Z,0.93
2023-12-30T01:34:37.362Z,1.30
2023-12-30T01:37:05.419Z,0.55
2023-12-30T01:39:33.436Z,1.30
2023-12-30T01:42:01.365Z,1.73
2023-12-30T01:44:29.387Z,0.82
2023-12-30T01:46:57.630Z,1.33
2023-12-30T01:49:25.658Z,0.73
2023-12-30T01:51:54.052Z,1.77
2023-12-30T01:54:22.762Z,0.82
2023-12-30T01:56:51.034Z,1.75
2023-12-30T01:59:20.227Z,1.10
2023-12-30T02:01:48.340Z,0.73
2023-12-30T02:04:16.423Z,1.13
2023-12-30T02:06:44.351Z,1.80
2023-12-30T02:09:13.847Z,1.58
2023-12-30T02:11:41.930Z,1.58
2023-12-30T02:14:25.712Z,0.75
2023-12-30T02:16:53.853Z,1.00
2023-12-30T02:19:22.104Z,0.85
2023-12-30T02:21:50.921Z,0.77
2023-12-30T02:24:21.901Z,2.28
2023-12-30T02:26:49.967Z,0.40
2023-12-30T02:29:17.880Z,0.82
2023-12-30T02:31:48.904Z,0.60
2023-12-30T02:34:18.933Z,0.57
2023-12-30T02:36:48.570Z,1.35
2023-12-30T02:39:16.821Z,1.40
2023-12-30T02:41:44.749Z,0.73
2023-12-30T02:44:16.640Z,1.65
2023-12-30T02:46:44.562Z,0.60
2023-12-30T02:49:13.284Z,1.23
2023-12-30T02:51:41.264Z,2.25
2023-12-30T02:54:09.249Z,1.15
2023-12-30T02:56:37.251Z,1.45
2023-12-30T02:59:05.301Z,1.23
2023-12-30T03:01:33.927Z,1.10
2023-12-30T03:04:02.441Z,0.52
2023-12-30T03:06:31.446Z,0.63
2023-12-30T03:09:00.413Z,1.63
2023-12-30T03:11:28.990Z,0.90
2023-12-30T03:13:56.938Z,0.63
2023-12-30T03:16:25.017Z,0.52
2023-12-30T03:18:53.241Z,1.75
2023-12-30T03:21:21.980Z,1.20
2023-12-30T03:23:50.031Z,1.73
2023-12-30T03:26:18.224Z,1.17
2023-12-30T03:28:46.116Z,1.88
2023-12-30T03:31:25.410Z,1.63
2023-12-30T03:33:53.978Z,0.93
2023-12-30T03:36:22.316Z,0.68
2023-12-30T03:38:53.674Z,0.70
2023-12-30T03:41:22.118Z,1.27
2023-12-30T03:43:50.744Z,1.38
2023-12-30T03:46:19.533Z,1.50
2023-12-30T03:48:47.474Z,0.75
2023-12-30T03:51:15.515Z,1.63
2023-12-30T03:53:43.497Z,1.60
2023-12-30T03:56:13.134Z,1.13
2023-12-30T03:58:41.263Z,1.23
2023-12-30T04:01:09.425Z,1.30
2023-12-30T04:03:37.493Z,0.68
2023-12-30T04:06:05.526Z,1.17
2023-12-30T04:08:33.756Z,0.80
2023-12-30T04:11:01.823Z,1.15
2023-12-30T04:13:29.942Z,1.10
2023-12-30T04:15:58.172Z,1.52
2023-12-30T04:18:26.314Z,0.98
2023-12-30T04:20:54.457Z,0.80
2023-12-30T04:23:22.357Z,0.77
2023-12-30T04:25:50.502Z,1.75
2023-12-30T04:28:18.514Z,1.35
2023-12-30T04:30:46.567Z,0.45
2023-12-30T04:33:15.198Z,0.85
2023-12-30T04:35:43.234Z,1.25
2023-12-30T04:38:11.307Z,0.88
2023-12-30T04:40:39.466Z,0.60
2023-12-30T04:43:07.774Z,0.77
2023-12-30T04:45:35.751Z,0.57
2023-12-30T04:48:03.983Z,0.73
2023-12-30T04:50:33.564Z,0.57
2023-12-30T04:53:01.751Z,1.02
2023-12-30T04:55:30.483Z,0.82
2023-12-30T04:57:58.782Z,1.52
2023-12-30T05:00:26.943Z,0.45
2023-12-30T05:02:54.918Z,0.75
2023-12-30T05:05:22.938Z,1.63
2023-12-30T05:07:50.935Z,0.73
2023-12-30T05:10:19.053Z,1.15
2023-12-30T05:12:47.095Z,0.82
2023-12-30T05:15:15.280Z,0.45
2023-12-30T05:17:43.960Z,1.25
2023-12-30T05:20:13.600Z,0.35
2023-12-30T05:22:42.326Z,1.83
2023-12-30T05:25:10.780Z,1.00
2023-12-30T05:27:39.191Z,0.65
2023-12-30T05:30:10.814Z,0.95
2023-12-30T05:32:39.167Z,2.15
2023-12-30T05:35:07.483Z,1.00
2023-12-30T05:37:35.539Z,1.27
2023-12-30T05:40:04.648Z,0.43
2023-12-30T05:42:32.661Z,0.95
2023-12-30T05:45:00.622Z,0.40
2023-12-30T05:47:28.613Z,1.10
2023-12-30T05:49:56.540Z,0.98
2023-12-30T05:52:24.638Z,0.77
2023-12-30T05:54:52.707Z,0.75
2023-12-30T05:57:20.696Z,1.23
2023-12-30T05:59:48.604Z,0.70
2023-12-30T06:02:16.558Z,0.75
2023-12-30T06:04:44.544Z,0.38
2023-12-30T06:07:12.721Z,1.90
2023-12-30T06:09:40.716Z,1.02
2023-12-30T06:12:14.018Z,1.32
2023-12-30T06:14:41.966Z,0.80
2023-12-30T06:17:09.900Z,0.65
2023-12-30T06:19:37.835Z,0.68
2023-12-30T06:22:06.408Z,1.60
2023-12-30T06:24:35.084Z,0.88
2023-12-30T06:27:03.155Z,0.68
2023-12-30T06:29:33.227Z,2.38
2023-12-30T06:32:01.596Z,0.65
2023-12-30T06:34:29.602Z,1.02
2023-12-30T06:36:57.666Z,0.75
2023-12-30T06:39:25.664Z,0.85
2023-12-30T06:41:53.641Z,0.57
2023-12-30T06:44:21.605Z,1.23
2023-12-30T06:46:49.652Z,2.20
2023-12-30T06:49:18.108Z,0.70
2023-12-30T06:51:46.390Z,0.90
2023-12-30T06:54:14.615Z,0.47
2023-12-30T06:56:44.553Z,1.45
2023-12-30T06:59:15.660Z,0.73
2023-12-30T07:01:43.818Z,0.95
2023-12-30T07:04:11.896Z,1.02
2023-12-30T07:06:39.880Z,1.13
2023-12-30T07:09:08.377Z,0.32
2023-12-30T07:11:36.711Z,1.80
2023-12-30T07:14:04.686Z,1.20
2023-12-30T07:16:32.704Z,2.10
2023-12-30T07:19:00.779Z,1.75
2023-12-30T07:21:28.773Z,2.22
2023-12-30T07:23:56.714Z,1.10
2023-12-30T07:26:24.706Z,1.48
2023-12-30T07:28:52.665Z,1.50
2023-12-30T07:31:20.660Z,1.48
2023-12-30T07:33:48.789Z,1.75
2023-12-30T07:36:16.931Z,1.17
2023-12-30T07:38:44.894Z,1.30
2023-12-30T07:41:15.724Z,1.00
2023-12-30T07:43:43.753Z,1.80
2023-12-30T07:46:12.336Z,1.20
2023-12-30T07:48:40.268Z,1.88
2023-12-30T07:51:08.388Z,1.67
2023-12-30T07:53:36.476Z,1.30
2023-12-30T07:56:04.911Z,1.02
2023-12-30T07:58:32.953Z,0.93
2023-12-30T08:01:01.120Z,2.45
2023-12-30T08:03:29.123Z,2.05
2023-12-30T08:05:57.374Z,1.40
2023-12-30T08:08:25.354Z,1.80
2023-12-30T08:10:53.520Z,2.13
2023-12-30T08:13:21.539Z,1.80
2023-12-30T08:15:49.464Z,1.13
2023-12-30T08:18:17.521Z,2.33
2023-12-30T08:20:45.726Z,1.85
2023-12-30T08:23:13.790Z,1.85
2023-12-30T08:25:41.900Z,1.25
2023-12-30T08:28:09.970Z,0.85
2023-12-30T08:30:38.431Z,1.20
2023-12-30T08:33:10.035Z,2.65
2023-12-30T08:35:38.259Z,1.30
2023-12-30T08:38:06.163Z,2.58
2023-12-30T08:40:36.794Z,1.83
2023-12-30T08:43:05.782Z,2.35
2023-12-30T08:45:34.145Z,2.35
2023-12-30T08:48:02.516Z,2.28
2023-12-30T08:50:31.507Z,2.13
2023-12-30T08:52:59.714Z,2.55
2023-12-30T08:55:27.829Z,3.42
2023-12-30T08:57:55.897Z,4.22
2023-12-30T09:00:23.984Z,2.05
2023-12-30T09:02:56.686Z,3.22
2023-12-30T09:05:24.954Z,3.08
2023-12-30T09:07:53.017Z,3.65
2023-12-30T09:10:21.218Z,2.95
2023-12-30T09:12:49.375Z,3.25
2023-12-30T09:15:17.308Z,3.75
2023-12-30T09:17:45.819Z,2.85
2023-12-30T09:20:13.889Z,2.63
2023-12-30T09:22:42.083Z,4.22
2023-12-30T09:25:10.697Z,4.05
2023-12-30T09:27:38.703Z,3.72
2023-12-30T09:30:07.512Z,4.22
2023-12-30T09:32:35.721Z,2.70
2023-12-30T09:35:04.355Z,3.05
2023-12-30T09:37:32.864Z,3.10
2023-12-30T09:40:01.123Z,3.70
2023-12-30T09:42:29.137Z,2.35
2023-12-30T09:44:57.162Z,2.90
2023-12-30T09:47:26.149Z,3.58
2023-12-30T09:49:56.812Z,2.97
2023-12-30T09:52:24.970Z,2.58
2023-12-30T09:54:52.890Z,2.85
2023-12-30T09:57:20.817Z,2.85
2023-12-30T09:59:49.417Z,2.90
2023-12-30T10:02:17.426Z,3.10
2023-12-30T10:04:46.032Z,3.22
2023-12-30T10:07:14.885Z,2.38
2023-12-30T10:09:42.923Z,2.67
2023-12-30T10:12:11.556Z,3.38
2023-12-30T10:14:42.694Z,2.81
2023-12-30T10:17:10.863Z,2.88
2023-12-30T10:19:39.240Z,3.03
2023-12-30T10:22:07.288Z,2.35
2023-12-30T10:24:35.304Z,2.50
2023-12-30T10:27:05.792Z,2.20
2023-12-30T10:29:46.041Z,1.73
2023-12-30T10:32:22.257Z,2.63
2023-12-30T10:34:50.297Z,1.85
2023-12-30T10:37:18.370Z,2.00
2023-12-30T10:39:46.511Z,1.90
2023-12-30T10:42:15.021Z,2.20
2023-12-30T10:44:43.379Z,2.22
2023-12-30T10:47:15.508Z,2.95
2023-12-30T10:49:52.213Z,1.83
2023-12-30T10:52:24.749Z,2.00
2023-12-30T10:55:01.411Z,2.50
2023-12-30T10:57:33.252Z,2.15
2023-12-30T11:00:05.714Z,1.70
2023-12-30T11:02:34.253Z,3.05
2023-12-30T11:05:03.757Z,1.60
2023-12-30T11:07:32.601Z,1.70
2023-12-30T11:10:00.712Z,2.15
2023-12-30T11:12:29.041Z,2.20
2023-12-30T11:14:57.149Z,1.95
2023-12-30T11:17:35.547Z,2.28
2023-12-30T11:20:31.839Z,1.85
2023-12-30T11:23:02.521Z,2.05
2023-12-30T11:25:35.919Z,1.75
2023-12-30T11:28:23.286Z,1.95
2023-12-30T11:31:00.483Z,1.63
2023-12-30T11:33:28.968Z,1.00
2023-12-30T11:35:57.508Z,1.58
2023-12-30T11:38:25.720Z,1.35
2023-12-30T11:40:56.035Z,1.35
2023-12-30T11:43:26.566Z,1.70
2023-12-30T11:45:55.170Z,1.27
2023-12-30T11:48:23.421Z,2.25
2023-12-30T11:50:55.384Z,0.90
2023-12-30T11:53:23.622Z,1.35
2023-12-30T11:55:51.866Z,2.00
2023-12-30T11:58:19.950Z,2.25
2023-12-30T12:00:48.114Z,1.38
2023-12-30T12:03:16.085Z,1.95
2023-12-30T12:05:44.034Z,2.20
2023-12-30T12:08:12.608Z,2.13
2023-12-30T12:10:40.665Z,1.48
2023-12-30T12:13:11.210Z,1.15
2023-12-30T12:15:43.392Z,1.67
2023-12-30T12:18:11.686Z,1.48
2023-12-30T12:20:39.928Z,1.38
2023-12-30T12:23:08.050Z,1.75
2023-12-30T12:25:39.391Z,1.63
2023-12-30T12:28:11.326Z,0.93
2023-12-30T12:30:40.095Z,1.10
2023-12-30T12:33:09.925Z,1.48
2023-12-30T12:35:38.379Z,1.38
2023-12-30T12:38:06.604Z,1.45
2023-12-30T12:40:34.773Z,1.08
2023-12-30T12:43:03.261Z,1.75
2023-12-30T12:45:31.829Z,1.10
2023-12-30T12:48:00.712Z,0.85
2023-12-30T12:50:29.018Z,0.70
2023-12-30T12:52:57.144Z,0.70
2023-12-30T12:55:25.152Z,1.55
2023-12-30T12:57:53.094Z,1.42
2023-12-30T13:00:21.072Z,1.15
2023-12-30T13:02:49.189Z,1.83
2023-12-30T13:05:21.028Z,1.00
2023-12-30T13:07:49.737Z,1.20
2023-12-30T13:10:32.911Z,0.73
2023-12-30T13:13:01.496Z,1.35
2023-12-30T13:15:30.690Z,0.73
2023-12-30T13:18:00.759Z,1.00
2023-12-30T13:20:29.054Z,1.00
2023-12-30T13:22:58.478Z,1.45
2023-12-30T13:25:29.508Z,1.23
2023-12-30T13:27:57.595Z,0.63
2023-12-30T13:30:25.544Z,0.70
2023-12-30T13:33:02.461Z,0.85
2023-12-30T13:35:35.752Z,1.42
2023-12-30T13:38:11.739Z,0.80
2023-12-30T13:40:43.831Z,0.95
2023-12-30T13:43:12.146Z,0.88
2023-12-30T13:45:47.709Z,1.35
2023-12-30T13:50:53.627Z,1.17
2023-12-30T13:53:25.224Z,0.85
2023-12-30T13:56:06.293Z,0.68
2023-12-30T13:58:34.668Z,0.70
2023-12-30T14:01:02.740Z,0.70
2023-12-30T14:03:30.912Z,1.17
2023-12-30T14:05:59.934Z,0.88
2023-12-30T14:08:43.092Z,1.35
2023-12-30T14:11:22.492Z,0.73
2023-12-30T14:13:52.752Z,0.88
2023-12-30T14:16:20.976Z,0.63
2023-12-30T14:18:49.112Z,1.02
2023-12-30T14:21:18.119Z,0.80
2023-12-30T14:23:46.179Z,0.43
2023-12-30T14:26:14.121Z,0.95
2023-12-30T14:28:42.190Z,0.50
2023-12-30T14:31:12.748Z,0.70
2023-12-30T14:33:40.799Z,0.63
2023-12-30T14:36:09.204Z,1.63
2023-12-30T14:38:37.171Z,0.77
2023-12-30T14:41:05.077Z,1.08
2023-12-30T14:43:33.501Z,0.65
2023-12-30T14:46:01.553Z,0.90
2023-12-30T14:48:29.721Z,1.05
2023-12-30T14:50:57.628Z,1.90
2023-12-30T14:53:25.593Z,1.33
2023-12-30T14:55:53.545Z,0.98
2023-12-30T14:58:21.626Z,0.50
2023-12-30T15:00:49.712Z,0.40
2023-12-30T15:03:17.684Z,0.85
2023-12-30T15:05:45.750Z,0.75
2023-12-30T15:08:13.900Z,0.70
2023-12-30T15:10:41.814Z,0.60
2023-12-30T15:13:09.792Z,0.88
2023-12-30T15:15:38.221Z,0.25
2023-12-30T15:18:08.113Z,1.25
2023-12-30T15:20:36.123Z,1.05
2023-12-30T15:23:04.611Z,0.88
2023-12-30T15:25:34.730Z,0.43
2023-12-30T15:28:04.981Z,0.40
2023-12-30T15:30:34.436Z,0.47
2023-12-30T15:33:03.480Z,0.80
2023-12-30T15:35:31.795Z,0.73
2023-12-30T15:37:59.851Z,0.85
2023-12-30T15:40:27.848Z,0.70
2023-12-30T15:42:55.850Z,0.95
2023-12-30T15:45:24.271Z,0.47
2023-12-30T15:47:52.748Z,0.57
2023-12-30T15:50:20.854Z,0.73
2023-12-30T15:52:48.923Z,0.95
2023-12-30T15:55:16.922Z,0.30
2023-12-30T15:57:44.985Z,0.38
2023-12-30T16:00:14.077Z,0.30
2023-12-30T16:02:45.077Z,0.50
2023-12-30T16:05:13.249Z,0.55
2023-12-30T16:07:41.350Z,0.70
2023-12-30T16:10:10.182Z,0.38
2023-12-30T16:12:38.216Z,0.98
2023-12-30T16:15:06.889Z,0.80
2023-12-30T16:17:34.874Z,0.45
2023-12-30T16:20:03.771Z,0.43
2023-12-30T16:22:31.703Z,0.85
2023-12-30T16:24:59.862Z,0.73
2023-12-30T16:27:27.802Z,0.90
2023-12-30T16:29:56.052Z,0.30
2023-12-30T16:32:24.416Z,0.63
2023-12-30T16:34:52.917Z,0.80
2023-12-30T16:37:26.921Z,0.57
2023-12-30T16:39:56.122Z,0.73
2023-12-30T16:42:24.101Z,0.98
2023-12-30T16:44:52.187Z,0.73
2023-12-30T16:47:20.184Z,0.60
2023-12-30T16:49:48.259Z,0.57
2023-12-30T16:52:16.224Z,1.30
2023-12-30T16:54:44.273Z,0.82
2023-12-30T16:57:12.464Z,1.00
2023-12-30T16:59:40.470Z,1.00
2023-12-30T17:02:08.763Z,0.88
2023-12-30T17:04:36.972Z,1.13
2023-12-30T17:07:05.141Z,1.02
2023-12-30T17:09:33.540Z,0.73
2023-12-30T17:12:01.462Z,0.90
2023-12-30T17:14:29.398Z,0.98
2023-12-30T17:16:57.370Z,1.25
2023-12-30T17:19:25.645Z,0.70
2023-12-30T17:21:53.807Z,1.35
2023-12-30T17:24:21.918Z,2.22
2023-12-30T17:26:49.931Z,1.00
2023-12-30T17:29:17.938Z,1.95
2023-12-30T17:31:46.001Z,1.02
2023-12-30T17:34:14.258Z,1.00
2023-12-30T17:36:42.193Z,1.42
2023-12-30T17:39:10.118Z,1.42
2023-12-30T17:41:38.085Z,1.70
2023-12-30T17:44:06.236Z,2.00
2023-12-30T17:46:35.316Z,1.38
2023-12-30T17:49:03.684Z,1.70
2023-12-30T17:51:31.785Z,1.50
2023-12-30T17:53:59.707Z,1.25
2023-12-30T17:56:29.844Z,1.45
2023-12-30T17:58:57.849Z,1.02
2023-12-30T18:01:26.644Z,1.58
2023-12-30T18:03:54.904Z,1.85
2023-12-30T18:06:22.966Z,1.45
2023-12-30T18:08:51.076Z,1.60
2023-12-30T18:11:19.645Z,1.90
2023-12-30T18:13:47.636Z,1.10
2023-12-30T18:16:15.815Z,1.50
2023-12-30T18:18:43.829Z,1.40
2023-12-30T18:21:12.020Z,1.10
2023-12-30T18:23:39.967Z,1.33
2023-12-30T18:26:12.570Z,1.23
2023-12-30T18:28:41.095Z,1.33
2023-12-30T18:31:09.150Z,1.48
2023-12-30T18:33:37.268Z,1.60
2023-12-30T18:36:05.829Z,1.30
2023-12-30T18:38:34.209Z,1.33
2023-12-30T18:41:02.148Z,1.70
2023-12-30T18:43:30.088Z,1.33
2023-12-30T18:46:00.547Z,1.23
2023-12-30T18:48:28.591Z,0.95
2023-12-30T18:50:56.585Z,1.95
2023-12-30T18:53:24.623Z,1.02
2023-12-30T18:55:52.820Z,1.10
2023-12-30T18:58:21.427Z,1.20
2023-12-30T19:00:50.624Z,1.33
2023-12-30T19:03:18.698Z,1.10
2023-12-30T19:05:46.779Z,1.15
2023-12-30T19:08:14.767Z,1.45
2023-12-30T19:10:42.806Z,1.20
2023-12-30T19:13:10.869Z,1.35
2023-12-30T19:15:38.948Z,1.15
2023-12-30T19:18:07.038Z,1.52
2023-12-30T19:20:35.053Z,1.70
2023-12-30T19:23:03.209Z,1.88
2023-12-30T19:25:31.346Z,1.65
2023-12-30T19:28:00.160Z,1.70
2023-12-30T19:30:28.248Z,1.25
2023-12-30T19:32:56.319Z,1.80
2023-12-30T19:35:24.661Z,1.42
2023-12-30T19:37:53.018Z,1.70
2023-12-30T19:40:21.044Z,1.80
2023-12-30T19:42:48.934Z,1.20
2023-12-30T19:45:16.907Z,1.67
2023-12-30T19:47:44.818Z,1.40
2023-12-30T19:50:12.797Z,1.40
2023-12-30T19:52:41.405Z,1.80
2023-12-30T19:55:09.658Z,1.33
2023-12-30T19:57:38.765Z,1.77
2023-12-30T20:00:07.900Z,2.15
2023-12-30T20:02:35.851Z,1.55
2023-12-30T20:05:04.876Z,1.80
2023-12-30T20:07:32.895Z,1.40
2023-12-30T20:10:01.778Z,1.75
2023-12-30T20:12:29.924Z,1.70
2023-12-30T20:14:57.948Z,1.80
2023-12-30T20:17:25.902Z,1.10
2023-12-30T20:19:53.987Z,1.05
2023-12-30T20:22:24.362Z,1.50
2023-12-30T20:24:53.406Z,0.90
2023-12-30T20:27:21.434Z,1.10
2023-12-30T20:29:50.503Z,1.33
2023-12-30T20:32:18.610Z,1.05
2023-12-30T20:34:49.413Z,0.88
2023-12-30T20:37:19.385Z,1.02
2023-12-30T20:39:47.446Z,0.88
2023-12-30T20:42:16.509Z,1.17
2023-12-30T20:44:44.429Z,1.10
2023-12-30T20:47:13.537Z,1.35
2023-12-30T20:49:45.251Z,0.85
2023-12-30T20:52:14.186Z,0.70
2023-12-30T20:54:42.567Z,0.80
2023-12-30T20:57:10.672Z,1.48
2023-12-30T20:59:38.584Z,0.77
2023-12-30T21:02:06.944Z,0.90
2023-12-30T21:04:36.479Z,0.80
2023-12-30T21:07:04.977Z,0.68
2023-12-30T21:09:34.465Z,0.70
2023-12-30T21:12:03.622Z,1.20
2023-12-30T21:14:31.508Z,0.52
2023-12-30T21:17:02.355Z,1.35
2023-12-30T21:19:33.672Z,0.75
2023-12-30T21:22:02.318Z,0.80
2023-12-30T21:24:30.274Z,1.30
2023-12-30T21:26:58.360Z,1.35
2023-12-30T21:29:26.286Z,0.52
2023-12-30T21:31:55.803Z,0.80
2023-12-30T21:34:23.756Z,1.17
2023-12-30T21:36:52.320Z,0.80
2023-12-30T21:39:20.218Z,1.08
2023-12-30T21:41:48.203Z,1.05
2023-12-30T21:44:16.138Z,0.90
2023-12-30T21:46:45.244Z,0.80
2023-12-30T21:49:16.030Z,1.02
2023-12-30T21:51:45.402Z,0.52
2023-12-30T21:54:14.762Z,0.65
2023-12-30T21:56:43.459Z,0.52
2023-12-30T21:59:11.593Z,0.70
2023-12-30T22:01:39.949Z,0.88
2023-12-30T22:04:08.171Z,0.70
2023-12-30T22:06:36.411Z,0.60
2023-12-30T22:09:04.406Z,1.73
2023-12-30T22:11:32.454Z,0.65
2023-12-30T22:14:00.464Z,1.33
2023-12-30T22:16:28.523Z,0.52
2023-12-30T22:18:56.675Z,0.75
2023-12-30T22:21:24.731Z,0.40
2023-12-30T22:23:52.684Z,0.55
2023-12-30T22:26:20.919Z,1.35
2023-12-30T22:28:49.012Z,0.65
2023-12-30T22:31:17.110Z,0.93
2023-12-30T22:33:45.094Z,0.38
2023-12-30T22:36:13.185Z,0.90
2023-12-30T22:38:41.074Z,0.77
2023-12-30T22:41:09.090Z,0.60
2023-12-30T22:43:37.292Z,0.80
2023-12-30T22:46:05.934Z,1.02
2023-12-30T22:48:34.207Z,0.60
2023-12-30T22:51:02.364Z,0.68
2023-12-30T22:53:30.371Z,0.70
2023-12-30T22:55:58.537Z,0.40
2023-12-30T22:58:26.492Z,1.08
2023-12-30T23:00:54.505Z,0.93
2023-12-30T23:03:25.209Z,0.90
2023-12-30T23:05:53.284Z,0.60
2023-12-30T23:08:21.210Z,0.80
2023-12-30T23:10:49.188Z,0.57
2023-12-30T23:13:20.192Z,0.40
2023-12-30T23:15:48.437Z,0.63
2023-12-30T23:18:16.722Z,0.70
2023-12-30T23:20:44.899Z,0.70
2023-12-30T23:23:12.980Z,0.80
2023-12-30T23:25:40.967Z,0.60
2023-12-30T23:28:09.006Z,0.75
2023-12-30T23:30:37.151Z,0.60
2023-12-30T23:33:05.653Z,0.52
2023-12-30T23:35:33.995Z,0.40
2023-12-30T23:38:02.008Z,0.63
2023-12-30T23:40:29.927Z,0.55
2023-12-30T23:42:57.892Z,0.38
2023-12-30T23:45:25.853Z,0.52
2023-12-30T23:47:53.911Z,1.00
2023-12-30T23:50:21.879Z,0.30
2023-12-30T23:52:49.915Z,0.95
2023-12-30T23:55:18.073Z,0.40
2023-12-30T23:57:46.013Z,0.50
